Time;durP1;ratioP1;P1;durP2;ratioP2;P2;SDS_P1;SDS_P2;PMS_P1;PMS_P2;Temp;Humidity;BMP_temperature;BMP_pressure;BME280_temperature;BME280_humidity;BME280_pressure;Samples;Min_cycle;Max_cycle;Signal;HPM_P1;HPM_P2
2023/07/05 00:01:23;;;;;;;5.27;4.00;;;18.40;99.90;;;;;;4997656;28;20488;-76
2023/07/05 00:03:50;;;;;;;6.77;4.40;;;18.50;99.90;;;;;;5005956;28;21024;-76
2023/07/05 00:06:18;;;;;;;7.10;4.43;;;18.60;99.90;;;;;;5006121;28;20447;-76
2023/07/05 00:08:45;;;;;;;5.90;4.10;;;18.60;99.90;;;;;;4999772;28;20489;-77
2023/07/05 00:11:12;;;;;;;8.90;4.27;;;18.60;99.90;;;;;;5009874;28;20444;-76
2023/07/05 00:13:39;;;;;;;8.30;4.27;;;18.70;99.90;;;;;;5002503;28;20545;-76
2023/07/05 00:16:06;;;;;;;15.60;4.53;;;18.70;99.90;;;;;;5002448;28;20521;-76
2023/07/05 00:18:33;;;;;;;4.10;3.70;;;18.80;99.90;;;;;;4997630;28;20491;-76
2023/07/05 00:21:01;;;;;;;5.83;4.40;;;18.80;99.90;;;;;;5002345;28;20471;-76
2023/07/05 00:23:29;;;;;;;7.97;4.60;;;18.80;99.90;;;;;;4994750;28;20540;-76
2023/07/05 00:25:56;;;;;;;5.27;4.27;;;18.80;99.90;;;;;;4998599;28;21258;-76
2023/07/05 00:28:23;;;;;;;6.47;4.17;;;18.80;99.90;;;;;;4999361;28;20871;-76
2023/07/05 00:30:50;;;;;;;7.33;3.80;;;18.80;99.90;;;;;;4997572;28;20462;-76
2023/07/05 00:33:16;;;;;;;4.53;3.90;;;18.80;99.90;;;;;;4997926;28;20457;-76
2023/07/05 00:35:48;;;;;;;8.30;4.37;;;18.90;99.90;;;;;;5003484;28;20465;-76
2023/07/05 00:38:15;;;;;;;5.70;3.60;;;18.80;99.90;;;;;;5003659;28;20893;-76
2023/07/05 00:40:43;;;;;;;8.53;4.10;;;18.90;99.90;;;;;;5003438;28;20504;-76
2023/07/05 00:43:10;;;;;;;8.43;3.50;;;18.90;99.90;;;;;;4997048;28;20488;-76
2023/07/05 00:45:53;;;;;;;9.43;4.40;;;18.80;99.90;;;;;;4993508;28;20441;-76
2023/07/05 00:48:23;;;;;;;8.03;4.40;;;18.80;99.90;;;;;;5002237;28;20489;-76
2023/07/05 00:50:55;;;;;;;10.63;4.00;;;18.70;99.90;;;;;;5011300;28;20935;-76
2023/07/05 00:53:23;;;;;;;5.93;4.60;;;18.70;99.90;;;;;;5001691;28;20453;-75
2023/07/05 00:56:02;;;;;;;5.87;3.90;;;18.50;99.90;;;;;;5004546;28;20433;-75
2023/07/05 00:58:30;;;;;;;11.37;5.13;;;18.50;99.90;;;;;;5001485;28;20808;-75
2023/07/05 01:00:56;;;;;;;8.97;4.93;;;18.40;99.90;;;;;;4997135;28;20429;-75
2023/07/05 01:03:26;;;;;;;13.90;4.77;;;18.30;99.90;;;;;;5003624;28;20507;-75
2023/07/05 01:05:59;;;;;;;7.50;4.77;;;18.30;99.90;;;;;;4999234;28;20424;-75
2023/07/05 01:08:26;;;;;;;8.93;4.80;;;18.30;99.90;;;;;;5004241;28;20473;-75
2023/07/05 01:11:01;;;;;;;7.83;4.43;;;18.30;99.90;;;;;;5001301;28;20465;-76
2023/07/05 01:13:31;;;;;;;9.73;4.90;;;18.20;99.90;;;;;;4997978;28;20474;-75
2023/07/05 01:16:18;;;;;;;8.57;4.73;;;18.20;99.90;;;;;;5004377;28;20905;-75
2023/07/05 01:18:50;;;;;;;6.73;4.60;;;18.10;99.90;;;;;;5008509;28;20464;-76
2023/07/05 01:21:24;;;;;;;7.47;4.50;;;18.10;99.90;;;;;;5003065;28;20473;-75
2023/07/05 01:24:27;;;;;;;6.00;4.87;;;18.00;99.90;;;;;;5001004;28;20495;-75
2023/07/05 01:27:34;;;;;;;6.23;4.27;;;17.90;99.90;;;;;;4998170;28;20429;-76
2023/07/05 01:30:42;;;;;;;5.73;4.10;;;17.90;99.90;;;;;;4995393;28;20964;-76
2023/07/05 01:33:14;;;;;;;4.37;3.60;;;17.80;99.90;;;;;;5000087;28;20871;-76
2023/07/05 01:35:49;;;;;;;6.13;3.63;;;17.70;99.90;;;;;;5003205;28;20870;-76
2023/07/05 01:38:15;;;;;;;4.37;3.10;;;17.70;99.90;;;;;;4993240;28;20434;-76
2023/07/05 01:40:55;;;;;;;7.07;3.80;;;17.60;99.90;;;;;;4995137;28;20483;-76
2023/07/05 01:43:22;;;;;;;4.47;3.63;;;17.60;99.90;;;;;;4995419;28;20473;-76
2023/07/05 01:46:01;;;;;;;6.40;3.70;;;17.60;99.90;;;;;;4996219;28;20543;-76
2023/07/05 01:48:36;;;;;;;6.43;4.10;;;17.50;99.90;;;;;;4995790;28;20490;-76
2023/07/05 01:51:07;;;;;;;5.13;4.07;;;17.50;99.90;;;;;;4994658;28;20463;-77
2023/07/05 01:53:37;;;;;;;6.13;4.13;;;17.40;99.90;;;;;;4998834;28;20452;-77
2023/07/05 01:56:10;;;;;;;6.10;4.80;;;17.40;99.90;;;;;;5007978;28;20577;-77
2023/07/05 01:58:42;;;;;;;6.50;4.07;;;17.30;99.90;;;;;;5005791;28;20513;-77
2023/07/05 02:01:10;;;;;;;6.00;4.83;;;17.20;99.90;;;;;;4998522;28;20456;-77
2023/07/05 02:03:41;;;;;;;8.90;4.20;;;17.20;99.90;;;;;;5001356;28;20456;-77
2023/07/05 02:06:08;;;;;;;5.43;4.50;;;17.10;99.90;;;;;;5002351;28;20428;-76
2023/07/05 02:08:37;;;;;;;7.37;4.40;;;17.20;99.90;;;;;;4993366;28;20434;-77
2023/07/05 02:11:04;;;;;;;6.97;4.10;;;17.00;99.90;;;;;;4993629;28;20958;-77
2023/07/05 02:13:31;;;;;;;6.97;5.03;;;17.00;99.90;;;;;;5007331;28;20457;-77
2023/07/05 02:15:58;;;;;;;7.50;4.70;;;17.00;99.90;;;;;;5001086;28;20465;-77
2023/07/05 02:18:26;;;;;;;5.43;4.30;;;16.90;99.90;;;;;;4997641;28;20950;-76
2023/07/05 02:20:54;;;;;;;8.57;4.13;;;16.90;99.90;;;;;;5003822;28;21004;-77
2023/07/05 02:23:21;;;;;;;4.50;3.77;;;16.90;99.90;;;;;;5007056;28;20520;-77
2023/07/05 02:25:48;;;;;;;9.43;4.20;;;16.80;99.90;;;;;;4996177;28;20529;-76
2023/07/05 02:28:15;;;;;;;7.03;4.80;;;16.80;99.90;;;;;;4994050;28;20462;-76
2023/07/05 02:30:41;;;;;;;6.60;4.87;;;16.80;99.90;;;;;;4995717;28;20492;-76
2023/07/05 02:33:08;;;;;;;6.90;4.70;;;16.80;99.90;;;;;;4999486;28;20424;-76
2023/07/05 02:35:36;;;;;;;13.73;4.80;;;16.80;99.90;;;;;;5000279;28;20498;-76
2023/07/05 02:38:04;;;;;;;6.20;4.10;;;16.70;99.90;;;;;;5001374;28;20856;-76
2023/07/05 02:40:31;;;;;;;7.43;4.80;;;16.70;99.90;;;;;;5006185;28;20477;-76
2023/07/05 02:42:59;;;;;;;7.03;4.87;;;16.80;99.90;;;;;;5000627;28;20433;-76
2023/07/05 02:45:26;;;;;;;7.20;5.13;;;16.80;99.90;;;;;;4998985;28;20845;-77
2023/07/05 02:47:53;;;;;;;8.47;5.30;;;16.80;99.90;;;;;;5000600;28;20451;-76
2023/07/05 02:50:20;;;;;;;4.63;4.10;;;16.80;99.90;;;;;;4994414;28;20451;-76
2023/07/05 02:52:47;;;;;;;7.50;4.63;;;16.90;99.90;;;;;;5008069;28;20462;-76
2023/07/05 02:55:15;;;;;;;4.63;4.20;;;16.90;99.90;;;;;;4998439;28;20573;-76
2023/07/05 02:57:42;;;;;;;5.90;4.30;;;16.90;99.90;;;;;;5002190;28;20507;-76
2023/07/05 03:00:10;;;;;;;10.27;5.30;;;16.90;99.90;;;;;;5001860;28;20503;-76
2023/07/05 03:02:36;;;;;;;6.87;4.47;;;16.90;99.90;;;;;;4999488;28;20516;-76
2023/07/05 03:05:07;;;;;;;12.13;5.60;;;17.00;99.90;;;;;;4995118;28;20834;-77
2023/07/05 03:07:34;;;;;;;7.33;4.77;;;17.00;99.90;;;;;;4994842;28;20510;-76
2023/07/05 03:10:01;;;;;;;10.13;4.83;;;16.90;99.90;;;;;;5004619;28;20448;-77
2023/07/05 03:12:29;;;;;;;10.03;5.40;;;16.90;99.90;;;;;;5003408;28;20938;-76
2023/07/05 03:14:56;;;;;;;8.60;5.17;;;16.90;99.90;;;;;;4999487;28;20534;-77
2023/07/05 03:17:22;;;;;;;7.07;5.10;;;17.00;99.90;;;;;;5006890;28;20925;-76
2023/07/05 03:19:52;;;;;;;5.10;4.53;;;17.00;99.90;;;;;;5004813;28;20783;-76
2023/07/05 03:22:19;;;;;;;11.37;5.40;;;16.90;99.90;;;;;;5004286;28;20436;-76
2023/07/05 03:24:45;;;;;;;10.83;5.50;;;16.90;99.90;;;;;;5000461;28;20533;-76
2023/07/05 03:27:12;;;;;;;7.67;5.40;;;16.90;99.90;;;;;;5000369;28;20453;-76
2023/07/05 03:29:40;;;;;;;8.73;5.77;;;16.90;99.90;;;;;;4997492;28;20460;-76
2023/07/05 03:32:08;;;;;;;7.23;5.77;;;16.90;99.90;;;;;;5009197;28;20486;-77
2023/07/05 03:34:34;;;;;;;8.57;6.13;;;16.90;99.90;;;;;;5008277;28;20463;-76
2023/07/05 03:37:01;;;;;;;9.33;5.60;;;16.90;99.90;;;;;;5005375;28;20428;-77
2023/07/05 03:39:27;;;;;;;9.63;5.77;;;16.80;99.90;;;;;;4995737;28;20467;-76
2023/07/05 03:41:54;;;;;;;11.43;5.90;;;16.80;99.90;;;;;;5002745;28;20425;-76
2023/07/05 03:44:22;;;;;;;7.40;5.93;;;16.80;99.90;;;;;;5005071;28;20529;-77
2023/07/05 03:46:50;;;;;;;7.10;5.87;;;16.80;99.90;;;;;;5009735;28;21114;-77
2023/07/05 03:49:17;;;;;;;10.03;6.10;;;16.80;99.90;;;;;;5002536;28;20462;-77
2023/07/05 03:51:44;;;;;;;10.40;7.10;;;16.80;99.90;;;;;;5008235;28;20437;-76
2023/07/05 03:54:11;;;;;;;8.03;7.23;;;16.80;99.90;;;;;;4998280;28;20470;-77
2023/07/05 03:56:38;;;;;;;11.07;7.33;;;16.90;99.90;;;;;;5000326;28;20530;-77
2023/07/05 03:59:04;;;;;;;8.23;7.43;;;16.80;99.90;;;;;;5004300;28;20517;-76
2023/07/05 04:01:32;;;;;;;9.57;8.67;;;16.80;99.90;;;;;;5004688;28;20484;-77
2023/07/05 04:04:02;;;;;;;15.23;8.90;;;16.80;99.90;;;;;;5001094;28;20449;-75
2023/07/05 04:06:31;;;;;;;10.97;9.07;;;16.90;99.90;;;;;;5004560;28;20421;-74
2023/07/05 04:08:57;;;;;;;8.97;8.07;;;16.90;99.90;;;;;;4999302;28;20459;-76
2023/07/05 04:11:24;;;;;;;8.73;7.93;;;16.90;99.90;;;;;;5005475;28;20458;-76
2023/07/05 04:13:52;;;;;;;12.50;8.90;;;16.90;99.90;;;;;;5008274;28;20474;-75
2023/07/05 04:16:20;;;;;;;10.30;9.00;;;17.00;99.90;;;;;;4997549;28;20603;-76
2023/07/05 04:18:50;;;;;;;8.83;7.93;;;17.00;99.90;;;;;;5000787;28;20648;-76
2023/07/05 04:21:19;;;;;;;7.70;7.00;;;17.00;99.90;;;;;;5003329;28;20429;-77
2023/07/05 04:23:46;;;;;;;10.13;6.10;;;17.00;99.90;;;;;;4998491;28;20449;-76
2023/07/05 04:26:14;;;;;;;9.50;6.10;;;17.10;99.90;;;;;;5003069;28;20416;-76
2023/07/05 04:28:43;;;;;;;7.87;6.00;;;17.10;99.90;;;;;;5006109;28;20974;-72
2023/07/05 04:31:12;;;;;;;10.17;6.27;;;17.20;99.90;;;;;;5004046;28;21100;-73
2023/07/05 04:33:38;;;;;;;10.30;6.20;;;17.30;99.90;;;;;;5004118;28;20454;-74
2023/07/05 04:36:06;;;;;;;7.07;6.37;;;17.40;99.90;;;;;;5006597;28;21060;-74
2023/07/05 04:38:34;;;;;;;9.40;7.03;;;17.40;99.90;;;;;;5005876;28;20433;-73
2023/07/05 04:41:00;;;;;;;6.53;5.93;;;17.40;99.90;;;;;;5004040;28;20442;-75
2023/07/05 04:43:28;;;;;;;6.73;6.00;;;17.50;99.90;;;;;;5002126;28;20989;-74
2023/07/05 04:45:57;;;;;;;8.27;7.47;;;17.50;99.90;;;;;;5002108;28;20500;-74
2023/07/05 04:48:25;;;;;;;8.80;7.00;;;17.50;99.90;;;;;;4998399;28;20479;-74
2023/07/05 04:50:54;;;;;;;12.87;7.30;;;17.50;99.90;;;;;;5002396;28;20479;-74
2023/07/05 04:53:21;;;;;;;9.80;6.27;;;17.50;99.90;;;;;;5005266;28;20544;-74
2023/07/05 04:55:53;;;;;;;7.70;5.47;;;17.50;99.90;;;;;;4997134;28;20523;-73
2023/07/05 04:58:21;;;;;;;6.40;5.70;;;17.50;99.90;;;;;;5000685;28;20462;-73
2023/07/05 05:00:49;;;;;;;8.03;4.30;;;17.60;99.90;;;;;;4998346;28;20493;-74
2023/07/05 05:03:17;;;;;;;10.30;4.87;;;17.70;99.90;;;;;;5000059;28;20941;-74
2023/07/05 05:05:44;;;;;;;4.63;4.23;;;17.70;99.90;;;;;;4996527;28;20478;-73
2023/07/05 05:08:11;;;;;;;4.90;4.40;;;17.70;99.90;;;;;;4999118;28;20429;-74
2023/07/05 05:10:38;;;;;;;7.37;4.80;;;17.80;99.90;;;;;;5003774;28;20437;-74
2023/07/05 05:13:08;;;;;;;5.93;4.07;;;17.80;99.90;;;;;;5003294;28;20422;-74
2023/07/05 05:15:35;;;;;;;4.23;3.87;;;17.90;99.90;;;;;;5003213;28;20464;-74
2023/07/05 05:18:02;;;;;;;5.80;3.90;;;18.00;99.90;;;;;;4995246;28;20429;-73
2023/07/05 05:20:29;;;;;;;4.00;3.70;;;18.10;99.90;;;;;;5003913;28;20437;-74
2023/07/05 05:22:56;;;;;;;4.83;3.80;;;18.20;99.90;;;;;;4997618;28;20639;-72
2023/07/05 05:25:23;;;;;;;3.90;3.50;;;18.30;99.90;;;;;;4992827;28;20529;-73
2023/07/05 05:27:49;;;;;;;4.57;2.90;;;18.30;99.90;;;;;;4992628;28;20473;-73
2023/07/05 05:30:18;;;;;;;7.33;3.00;;;18.40;99.90;;;;;;5009876;28;20471;-73
2023/07/05 05:32:46;;;;;;;2.87;2.67;;;18.40;99.90;;;;;;5002334;28;20492;-72
2023/07/05 05:35:12;;;;;;;5.60;2.80;;;18.40;99.90;;;;;;5009611;28;20465;-71
2023/07/05 05:37:39;;;;;;;4.40;2.60;;;18.40;99.90;;;;;;5007972;28;20878;-72
2023/07/05 05:40:08;;;;;;;3.23;2.53;;;18.40;99.90;;;;;;4997296;28;20459;-73
2023/07/05 05:42:34;;;;;;;4.30;2.77;;;18.40;99.90;;;;;;4992464;28;21022;-72
2023/07/05 05:45:01;;;;;;;3.10;2.60;;;18.40;99.90;;;;;;5005419;28;20448;-72
2023/07/05 05:47:29;;;;;;;7.63;2.50;;;18.40;99.90;;;;;;5000083;28;20506;-71
2023/07/05 05:49:56;;;;;;;4.30;2.13;;;18.50;99.90;;;;;;4993555;28;20434;-72
2023/07/05 05:52:22;;;;;;;2.90;2.70;;;18.60;99.90;;;;;;5000886;28;20488;-71
2023/07/05 05:54:49;;;;;;;3.33;2.63;;;18.40;99.90;;;;;;4991867;28;20446;-72
2023/07/05 05:57:16;;;;;;;3.53;2.40;;;18.40;99.90;;;;;;5003444;28;20450;-71
2023/07/05 05:59:42;;;;;;;3.97;2.80;;;18.20;99.90;;;;;;5010545;28;21099;-71
2023/07/05 06:02:10;;;;;;;2.97;2.57;;;18.10;99.90;;;;;;4993279;28;20433;-71
2023/07/05 06:04:38;;;;;;;3.87;2.80;;;18.10;99.90;;;;;;4991484;28;21019;-72
2023/07/05 06:07:04;;;;;;;7.10;2.67;;;18.00;99.90;;;;;;4991976;28;20425;-71
2023/07/05 06:09:38;;;;;;;6.30;2.87;;;17.90;99.90;;;;;;5002635;28;20427;-71
2023/07/05 06:12:05;;;;;;;10.23;3.27;;;17.80;99.90;;;;;;4996191;28;20462;-72
2023/07/05 06:14:32;;;;;;;3.70;2.70;;;17.80;99.90;;;;;;4996852;28;20474;-71
2023/07/05 06:16:58;;;;;;;3.60;3.30;;;17.90;99.90;;;;;;4991837;28;20465;-72
2023/07/05 06:19:25;;;;;;;3.20;2.90;;;18.10;99.90;;;;;;4999792;28;20429;-70
2023/07/05 06:21:53;;;;;;;5.90;3.80;;;18.10;99.90;;;;;;5006395;28;20743;-71
2023/07/05 06:24:19;;;;;;;4.33;3.27;;;18.10;99.90;;;;;;5011324;28;20453;-71
2023/07/05 06:26:46;;;;;;;5.23;3.20;;;18.00;99.90;;;;;;5000443;28;20831;-70
2023/07/05 06:29:13;;;;;;;5.30;3.57;;;18.00;99.90;;;;;;5006240;28;20474;-71
2023/07/05 06:31:39;;;;;;;5.07;3.60;;;18.10;99.90;;;;;;4997320;28;20479;-71
2023/07/05 06:34:06;;;;;;;5.47;3.73;;;18.20;99.90;;;;;;5003681;28;20532;-71
2023/07/05 06:36:32;;;;;;;6.60;3.90;;;18.30;99.90;;;;;;5010941;28;20514;-70
2023/07/05 06:39:00;;;;;;;4.60;4.13;;;18.20;99.90;;;;;;5001122;28;20485;-71
2023/07/05 06:41:27;;;;;;;5.53;4.30;;;18.00;99.90;;;;;;5011764;28;20501;-70
2023/07/05 06:43:54;;;;;;;5.60;4.90;;;18.00;99.90;;;;;;5004915;28;20458;-71
2023/07/05 06:46:20;;;;;;;5.13;4.40;;;17.90;99.90;;;;;;5008635;28;20931;-71
2023/07/05 06:48:47;;;;;;;10.13;5.47;;;18.00;99.90;;;;;;5004235;28;20491;-71
2023/07/05 06:51:13;;;;;;;9.93;5.30;;;17.90;99.90;;;;;;5005086;28;20480;-70
2023/07/05 06:53:40;;;;;;;7.77;4.80;;;17.90;99.90;;;;;;5003599;28;20474;-70
2023/07/05 06:56:09;;;;;;;7.63;5.23;;;18.10;99.90;;;;;;5005272;28;20468;-70
2023/07/05 06:58:36;;;;;;;6.43;5.20;;;18.20;99.90;;;;;;5007821;28;20990;-70
2023/07/05 07:01:03;;;;;;;7.63;5.10;;;18.40;99.90;;;;;;5008874;28;20429;-70
2023/07/05 07:03:30;;;;;;;7.30;5.10;;;18.50;99.90;;;;;;5004795;28;20509;-71
2023/07/05 07:05:58;;;;;;;5.80;5.07;;;18.90;99.90;;;;;;5011244;28;20910;-70
2023/07/05 07:08:29;;;;;;;12.83;5.10;;;18.90;99.90;;;;;;5005857;28;20440;-71
2023/07/05 07:10:56;;;;;;;8.10;5.17;;;18.60;99.90;;;;;;5005889;28;20930;-71
2023/07/05 07:13:25;;;;;;;5.20;4.50;;;18.60;99.90;;;;;;5009862;28;21039;-71
2023/07/05 07:16:00;;;;;;;5.80;4.13;;;18.60;99.90;;;;;;5008729;28;20460;-71
2023/07/05 07:18:26;;;;;;;6.00;4.10;;;18.70;99.90;;;;;;5006481;28;20934;-71
2023/07/05 07:20:54;;;;;;;8.60;4.47;;;18.50;99.90;;;;;;5012530;28;20428;-71
2023/07/05 07:23:21;;;;;;;6.63;4.60;;;18.40;99.90;;;;;;5011230;28;20448;-70
2023/07/05 07:25:47;;;;;;;7.00;3.90;;;18.20;99.90;;;;;;5010695;28;20447;-70
2023/07/05 07:28:14;;;;;;;5.70;4.40;;;18.30;99.90;;;;;;5009769;28;20492;-69
2023/07/05 07:30:42;;;;;;;6.27;4.10;;;18.60;99.90;;;;;;5006545;28;20527;-70
2023/07/05 07:33:09;;;;;;;5.80;3.87;;;18.80;99.90;;;;;;5006122;28;20455;-70
2023/07/05 07:35:35;;;;;;;7.63;4.43;;;18.80;99.90;;;;;;5010778;28;20469;-70
2023/07/05 07:38:02;;;;;;;5.97;4.40;;;19.00;99.90;;;;;;5010544;28;20839;-70
2023/07/05 07:40:28;;;;;;;13.37;3.97;;;19.40;99.90;;;;;;5009884;28;20574;-70
2023/07/05 07:42:55;;;;;;;4.60;3.20;;;19.60;99.90;;;;;;5010809;28;20450;-70
2023/07/05 07:45:22;;;;;;;5.73;3.70;;;19.30;99.90;;;;;;5006246;28;20475;-71
2023/07/05 07:47:50;;;;;;;5.43;3.60;;;19.10;99.90;;;;;;5011104;28;21028;-70
2023/07/05 07:50:16;;;;;;;4.77;3.27;;;19.00;99.90;;;;;;5009870;28;20451;-71
2023/07/05 07:52:43;;;;;;;3.70;2.90;;;18.90;99.90;;;;;;5010431;28;21005;-70
2023/07/05 07:55:10;;;;;;;3.30;3.00;;;18.70;99.90;;;;;;5010661;28;20534;-69
2023/07/05 07:57:36;;;;;;;7.27;3.60;;;18.60;99.90;;;;;;5013711;28;20857;-70
2023/07/05 08:00:05;;;;;;;3.97;3.57;;;19.00;99.90;;;;;;5010037;28;20517;-71
2023/07/05 08:02:32;;;;;;;5.50;3.23;;;19.30;99.90;;;;;;5012615;28;20442;-69
2023/07/05 08:05:00;;;;;;;4.40;3.53;;;19.10;99.90;;;;;;5009309;28;20478;-72
2023/07/05 08:07:26;;;;;;;7.20;3.27;;;19.30;99.90;;;;;;5012938;28;20442;-70
2023/07/05 08:09:55;;;;;;;3.97;3.20;;;19.30;99.90;;;;;;5013352;28;20950;-70
2023/07/05 08:12:22;;;;;;;4.63;3.73;;;19.20;99.90;;;;;;5013003;28;20461;-69
2023/07/05 08:14:49;;;;;;;5.57;3.13;;;19.30;99.90;;;;;;5013587;28;20466;-69
2023/07/05 08:17:16;;;;;;;3.10;2.80;;;19.20;99.90;;;;;;5012249;28;20492;-70
2023/07/05 08:19:43;;;;;;;5.47;3.10;;;19.30;99.90;;;;;;5012945;28;20461;-68
2023/07/05 08:22:11;;;;;;;4.93;2.57;;;19.50;99.90;;;;;;5015201;28;20446;-69
2023/07/05 08:24:38;;;;;;;5.93;2.37;;;19.80;99.90;;;;;;5013122;28;20478;-70
2023/07/05 08:27:05;;;;;;;3.60;2.40;;;19.60;99.90;;;;;;5012771;28;20450;-71
2023/07/05 08:29:32;;;;;;;10.87;2.50;;;19.40;99.90;;;;;;5004040;28;20480;-70
2023/07/05 08:31:58;;;;;;;11.70;4.43;;;19.20;99.90;;;;;;5005663;28;20450;-70
2023/07/05 08:34:25;;;;;;;2.23;2.07;;;19.20;99.90;;;;;;5012889;28;20888;-71
2023/07/05 08:36:52;;;;;;;2.53;2.33;;;19.40;99.90;;;;;;5012564;28;20464;-69
2023/07/05 08:39:20;;;;;;;4.80;2.13;;;19.40;99.90;;;;;;5013046;28;20541;-69
2023/07/05 08:42:13;;;;;;;11.73;2.20;;;19.20;99.90;;;;;;5012693;28;20596;-69
2023/07/05 08:44:54;;;;;;;4.50;1.73;;;19.40;99.90;;;;;;5009170;28;21178;-70
2023/07/05 08:47:27;;;;;;;4.80;2.50;;;19.60;99.90;;;;;;5005627;28;20490;-70
2023/07/05 08:50:05;;;;;;;4.00;2.13;;;19.40;99.90;;;;;;5012843;28;20541;-69
2023/07/05 08:52:35;;;;;;;3.43;2.23;;;19.00;99.90;;;;;;5013404;28;20480;-68
2023/07/05 08:55:08;;;;;;;3.30;2.13;;;19.10;99.90;;;;;;5006248;28;20441;-69
2023/07/05 08:57:43;;;;;;;2.57;2.37;;;19.20;99.90;;;;;;5011524;28;20468;-68
2023/07/05 09:00:14;;;;;;;4.90;2.60;;;18.90;99.90;;;;;;5012560;28;20429;-68
2023/07/05 09:02:41;;;;;;;3.47;2.77;;;18.80;99.90;;;;;;5012385;28;20429;-71
2023/07/05 09:05:16;;;;;;;4.83;3.10;;;18.60;99.90;;;;;;5012396;28;20449;-69
2023/07/05 09:07:52;;;;;;;3.90;3.10;;;18.50;99.90;;;;;;5012223;28;20428;-70
2023/07/05 09:10:24;;;;;;;3.50;2.47;;;18.40;99.90;;;;;;5012484;28;20428;-71
2023/07/05 09:13:10;;;;;;;5.30;2.97;;;18.20;99.90;;;;;;5004281;28;20463;-68
2023/07/05 09:15:43;;;;;;;2.97;2.30;;;18.20;99.90;;;;;;5012371;28;20488;-70
2023/07/05 09:18:17;;;;;;;7.53;2.37;;;18.00;99.90;;;;;;5011309;28;20468;-70
2023/07/05 09:20:56;;;;;;;7.40;2.30;;;17.90;99.90;;;;;;5014317;28;20485;-70
2023/07/05 09:23:29;;;;;;;3.63;2.50;;;18.00;99.90;;;;;;5010317;28;20491;-69
2023/07/05 09:26:03;;;;;;;2.87;2.33;;;18.20;99.90;;;;;;5012049;28;20508;-72
2023/07/05 09:28:36;;;;;;;2.47;2.27;;;18.40;99.90;;;;;;5011952;28;20428;-70
2023/07/05 09:31:11;;;;;;;6.27;2.77;;;18.80;99.90;;;;;;5007333;28;20426;-70
2023/07/05 09:33:44;;;;;;;2.10;1.90;;;19.00;99.90;;;;;;5009894;28;20504;-71
2023/07/05 09:36:18;;;;;;;3.87;2.33;;;19.00;99.90;;;;;;5011180;28;20428;-71
2023/07/05 09:38:49;;;;;;;3.97;2.47;;;19.20;99.90;;;;;;5010436;28;20453;-70
2023/07/05 09:41:21;;;;;;;4.30;1.80;;;19.00;99.90;;;;;;5011829;28;21219;-71
2023/07/05 09:43:48;;;;;;;4.33;2.20;;;18.60;99.90;;;;;;5011459;28;20843;-71
2023/07/05 09:46:20;;;;;;;2.50;2.17;;;18.50;99.90;;;;;;5005494;28;20429;-69
2023/07/05 09:48:47;;;;;;;2.27;2.07;;;18.60;99.90;;;;;;5009413;28;20462;-68
2023/07/05 09:51:15;;;;;;;3.50;2.33;;;18.70;99.90;;;;;;5005260;28;20502;-69
2023/07/05 09:53:45;;;;;;;4.43;2.97;;;18.60;99.90;;;;;;5000473;28;20475;-70
2023/07/05 09:56:13;;;;;;;2.60;2.27;;;18.60;99.90;;;;;;5007395;28;20469;-69
2023/07/05 09:58:44;;;;;;;2.50;2.23;;;18.60;99.90;;;;;;5001825;28;20463;-70
2023/07/05 10:01:16;;;;;;;2.60;2.40;;;18.60;99.90;;;;;;5010082;28;20425;-71
2023/07/05 10:03:52;;;;;;;2.17;2.00;;;18.50;99.90;;;;;;5009759;28;20879;-68
2023/07/05 10:06:23;;;;;;;2.33;2.13;;;18.40;99.90;;;;;;5011267;28;20429;-69
2023/07/05 10:08:52;;;;;;;2.83;2.53;;;18.40;99.90;;;;;;5011836;28;20444;-68
2023/07/05 10:11:24;;;;;;;8.80;2.30;;;18.60;99.90;;;;;;5011813;28;20433;-70
2023/07/05 10:14:13;;;;;;;2.30;2.10;;;18.70;99.90;;;;;;5011423;28;20497;-69
2023/07/05 10:16:49;;;;;;;3.57;3.00;;;18.60;99.90;;;;;;5006581;28;20461;-68
2023/07/05 10:19:27;;;;;;;3.03;2.57;;;18.50;99.90;;;;;;5011246;28;20448;-69
2023/07/05 10:21:58;;;;;;;2.80;2.50;;;18.60;99.90;;;;;;5011653;28;20454;-70
2023/07/05 10:24:27;;;;;;;2.23;2.00;;;18.70;99.90;;;;;;5011435;28;20474;-69
2023/07/05 10:27:02;;;;;;;1.97;1.87;;;19.00;99.90;;;;;;5011537;28;20442;-70
2023/07/05 10:29:32;;;;;;;4.37;1.90;;;19.20;99.90;;;;;;5011607;28;20498;-69
2023/07/05 10:32:00;;;;;;;3.30;2.17;;;19.20;99.90;;;;;;5011072;28;20442;-69
2023/07/05 10:34:27;;;;;;;3.17;1.90;;;19.70;99.90;;;;;;5011251;28;20477;-69
2023/07/05 10:36:54;;;;;;;2.10;1.97;;;20.30;99.90;;;;;;5010891;28;20490;-68
2023/07/05 10:39:23;;;;;;;4.90;2.20;;;20.20;99.90;;;;;;5011546;28;20532;-68
2023/07/05 10:41:52;;;;;;;5.10;1.90;;;19.70;99.90;;;;;;5010080;28;20461;-69
2023/07/05 10:44:27;;;;;;;2.70;1.70;;;19.50;99.90;;;;;;5005177;28;21033;-69
2023/07/05 10:46:56;;;;;;;17.87;2.17;;;19.80;99.90;;;;;;5003449;28;20549;-68
2023/07/05 10:49:24;;;;;;;2.50;1.90;;;19.90;99.90;;;;;;5002513;28;20450;-70
2023/07/05 10:51:53;;;;;;;2.60;1.70;;;19.90;99.90;;;;;;5002330;28;20462;-71
2023/07/05 10:54:28;;;;;;;1.87;1.67;;;20.00;99.90;;;;;;5000256;28;20475;-70
2023/07/05 10:56:55;;;;;;;4.13;2.13;;;20.00;99.90;;;;;;5010680;28;20492;-70
2023/07/05 10:59:30;;;;;;;1.80;1.70;;;19.80;99.90;;;;;;5010217;28;20500;-70
2023/07/05 11:02:02;;;;;;;3.47;2.43;;;19.80;99.90;;;;;;5001945;28;20575;-69
2023/07/05 11:04:32;;;;;;;2.70;1.80;;;20.10;99.90;;;;;;5007001;28;20470;-69
2023/07/05 11:07:07;;;;;;;2.43;2.10;;;20.40;99.90;;;;;;5010261;28;20479;-69
2023/07/05 11:09:35;;;;;;;2.60;1.73;;;20.40;99.90;;;;;;5005250;28;20605;-68
2023/07/05 11:12:05;;;;;;;6.43;1.97;;;20.50;99.90;;;;;;5008115;28;20465;-69
2023/07/05 11:14:33;;;;;;;2.10;1.90;;;20.60;99.90;;;;;;5010714;28;20470;-69
2023/07/05 11:17:01;;;;;;;2.40;1.80;;;20.80;99.90;;;;;;5009333;28;20899;-68
2023/07/05 11:19:30;;;;;;;2.00;1.77;;;20.90;99.90;;;;;;5005734;28;20459;-68
2023/07/05 11:21:57;;;;;;;3.67;1.67;;;21.00;99.90;;;;;;5012601;28;20458;-69
2023/07/05 11:24:43;;;;;;;2.50;1.60;;;21.20;99.90;;;;;;5006407;28;20909;-69
2023/07/05 11:27:43;;;;;;;2.83;1.90;;;21.20;99.90;;;;;;5001893;28;20538;-68
2023/07/05 11:30:43;;;;;;;4.23;2.17;;;21.70;99.90;;;;;;4998188;28;20454;-68
2023/07/05 11:33:18;;;;;;;4.20;2.40;;;22.00;99.90;;;;;;5008792;28;20850;-69
2023/07/05 11:35:47;;;;;;;5.77;2.13;;;21.90;99.90;;;;;;5006947;28;20446;-68
2023/07/05 11:39:06;;;;;;;3.67;1.80;;;21.70;99.90;;;;;;5013471;28;21001;-69
2023/07/05 11:41:37;;;;;;;6.87;2.10;;;21.90;99.90;;;;;;5010638;28;20442;-69
2023/07/05 11:44:05;;;;;;;2.63;2.10;;;22.00;99.90;;;;;;5004684;28;20489;-68
2023/07/05 11:46:44;;;;;;;3.23;2.00;;;22.10;99.90;;;;;;5003794;28;20458;-69
2023/07/05 11:49:36;;;;;;;2.77;1.97;;;21.90;99.90;;;;;;4999840;28;20529;-69
2023/07/05 11:52:12;;;;;;;2.97;1.73;;;22.00;99.90;;;;;;5004606;28;20464;-68
2023/07/05 11:54:46;;;;;;;2.03;1.80;;;22.20;99.90;;;;;;5005052;28;21010;-69
2023/07/05 11:57:14;;;;;;;5.20;2.10;;;22.30;99.90;;;;;;5014479;28;20490;-68
2023/07/05 11:59:49;;;;;;;3.33;2.43;;;22.10;99.90;;;;;;5008026;28;20457;-68
2023/07/05 12:02:30;;;;;;;4.40;2.17;;;22.10;99.90;;;;;;5013279;28;20450;-68
2023/07/05 12:05:02;;;;;;;6.53;2.10;;;22.40;99.90;;;;;;5009456;28;20574;-71
2023/07/05 12:07:31;;;;;;;5.30;2.33;;;22.00;99.90;;;;;;5011290;28;20552;-71
2023/07/05 12:09:58;;;;;;;3.07;1.90;;;22.40;99.90;;;;;;5012555;28;20466;-72
2023/07/05 12:12:26;;;;;;;5.50;2.10;;;22.40;99.90;;;;;;5013754;28;20469;-71
2023/07/05 12:14:52;;;;;;;5.23;2.07;;;22.30;99.90;;;;;;5004458;28;20509;-72
2023/07/05 12:17:26;;;;;;;3.80;1.70;;;22.20;99.90;;;;;;5013586;28;20490;-72
2023/07/05 12:19:53;;;;;;;3.67;1.93;;;22.80;99.90;;;;;;5013238;28;20486;-72
2023/07/05 12:22:25;;;;;;;5.20;2.57;;;23.10;99.90;;;;;;5013417;28;20501;-73
2023/07/05 12:24:54;;;;;;;5.87;2.50;;;22.70;99.90;;;;;;5003889;28;20537;-73
2023/07/05 12:27:24;;;;;;;5.10;2.50;;;22.30;99.90;;;;;;5013086;28;20452;-73
2023/07/05 12:29:52;;;;;;;4.27;2.40;;;22.10;99.90;;;;;;5013252;28;20469;-73
2023/07/05 12:32:21;;;;;;;4.47;2.10;;;21.90;99.90;;;;;;5011423;28;20497;-73
2023/07/05 12:34:47;;;;;;;6.20;2.33;;;22.20;99.90;;;;;;5010531;28;20547;-74
2023/07/05 12:37:34;;;;;;;5.07;2.47;;;22.50;99.90;;;;;;5010928;28;20845;-74
2023/07/05 12:40:26;;;;;;;6.23;2.70;;;22.80;99.90;;;;;;5012645;28;20454;-73
2023/07/05 12:42:55;;;;;;;3.40;2.30;;;22.70;99.90;;;;;;5014443;28;20450;-74
2023/07/05 12:45:26;;;;;;;6.00;2.03;;;22.20;99.90;;;;;;5018840;28;21089;-74
2023/07/05 12:47:53;;;;;;;5.20;2.40;;;22.30;99.90;;;;;;5013845;28;20498;-74
2023/07/05 12:50:22;;;;;;;3.30;2.10;;;22.20;99.90;;;;;;5011561;28;20501;-73
2023/07/05 12:53:01;;;;;;;7.70;2.67;;;22.20;99.90;;;;;;5008484;28;20839;-73
2023/07/05 12:55:31;;;;;;;10.40;2.67;;;22.50;99.90;;;;;;5012913;28;20457;-73
2023/07/05 12:57:58;;;;;;;6.23;3.37;;;22.40;99.90;;;;;;5005320;28;20494;-75
2023/07/05 13:00:25;;;;;;;4.80;3.00;;;22.60;99.90;;;;;;5012422;28;20454;-71